Portada
METAR-TAF:

METAR-TAF

Aeroports :

Kupang, Indonèsia

latitud: 10-10-17S, longitud: 123-40-16E, altitud: 102 m

METAR: manca

Hora: 08:37 (01:37 UTC)

Pronòstic

L'informe es va fer fa 2 hores i 37 minuts, a les 23:00 UTC
Pronòstic vàlid del 01 a les 00 UTC al 01 a les 24 UTC
Vent 3 kt del Sud/Sud-Est
Visibilitat 10 km o més
Núvols disperses a una alçada de 1800 ft
Evolucionant progressivament
l' 01 a les 02 UTC al 01 a les 04 UTC
Vent 13 kt del Oest/Nord-Oest
Probabilitat 30% :
Temporalment
l' 01 a les 04 UTC al 01 a les 08 UTC
Visibilitat: 5000 m
Escasses núvols a una alçada de 1800 ft, Cumulonimbus.
tempesta, pluja
Evolucionant progressivament
l' 01 a les 11 UTC al 01 a les 13 UTC
Vent 4 kt del Est/Sud-Est

TAF: WATT 312300Z 0100/0124 15003KT 9999 SCT018 BECMG 0102/0104 30013KT PROB30 TEMPO 0104/0108 5000 -TSRA FEW018CB BECMG 0111/0113 11004KT

Observacions i pronòstics meteorològics de més de 4000 aeroports (METAR i TAF).

Les estacions disponibles són els punts grocs i vermells al mapa.

Posi el ratolí al punt desitjat per veure el nom de l'estació.

Feu clic per veure les observacions i els pronòstics meteorològics.

Per canviar el mapa: feu clic els botons verds amb una creu de color negre per apropar; al botó verd amb un guió per allunyar la imatge; o en les fletxes verdes per a mapes adjacents.


METAR-TAF: